Terminal Aerodrome Forecast
Issued by NWS

Home | Current Version | Previous Version | Graphics & Text | Print | Product List | Glossary On
Versions: 1 2 3 4 5 6 7 8 9 10 11 12 13 14 15 16 17
791
FTUS43 KABR 080216 AAA
TAFPIR
TAF AMD
KPIR 080216Z 0802/0824 33024G31KT P6SM SKC
     FM080400 32021G30KT P6SM SCT060
     FM081500 32018G26KT P6SM BKN250=

USA.gov is the U.S. government's official web portal to all federal, state and local government web resources and services.